createdAt,value
2019-02-14T00:00:44.661Z,95.80
2019-02-14T00:03:10.945Z,95.80
2019-02-14T00:05:37.338Z,95.80
2019-02-14T00:08:03.728Z,95.80
2019-02-14T00:10:30.130Z,95.90
2019-02-14T00:12:56.449Z,96.00
2019-02-14T00:15:22.724Z,96.20
2019-02-14T00:17:49.112Z,95.90
2019-02-14T00:20:15.466Z,95.90
2019-02-14T00:22:41.766Z,96.20
2019-02-14T00:25:09.031Z,95.90
2019-02-14T00:27:35.456Z,96.00
2019-02-14T00:30:01.930Z,96.00
2019-02-14T00:32:28.310Z,96.00
2019-02-14T00:34:54.576Z,96.10
2019-02-14T00:37:20.849Z,96.10
2019-02-14T00:39:47.169Z,96.10
2019-02-14T00:42:13.556Z,96.20
2019-02-14T00:44:39.821Z,96.30
2019-02-14T00:47:06.317Z,96.30
2019-02-14T00:49:32.716Z,96.30
2019-02-14T00:51:59.124Z,96.30
2019-02-14T00:54:25.462Z,96.30
2019-02-14T00:56:51.777Z,96.30
2019-02-14T00:59:18.176Z,96.30
2019-02-14T01:01:44.449Z,96.40
2019-02-14T01:04:10.859Z,96.40
2019-02-14T01:06:37.118Z,96.40
2019-02-14T01:09:04.930Z,96.30
2019-02-14T01:11:31.322Z,96.60
2019-02-14T01:13:57.813Z,96.50
2019-02-14T01:16:24.196Z,96.70
2019-02-14T01:18:50.564Z,96.60
2019-02-14T01:21:16.861Z,96.50
2019-02-14T01:23:43.229Z,96.40
2019-02-14T01:26:09.743Z,96.30
2019-02-14T01:28:36.056Z,96.30
2019-02-14T01:31:02.463Z,96.30
2019-02-14T01:33:28.765Z,96.30
2019-02-14T01:35:55.256Z,96.30
2019-02-14T01:38:21.669Z,96.30
2019-02-14T01:40:48.171Z,96.40
2019-02-14T01:43:14.450Z,96.40
2019-02-14T01:45:40.751Z,96.50
2019-02-14T01:48:07.410Z,96.50
2019-02-14T01:50:33.855Z,96.60
2019-02-14T01:53:00.164Z,96.80
2019-02-14T01:55:26.515Z,96.50
2019-02-14T01:57:52.911Z,96.50
2019-02-14T02:00:19.482Z,96.50
2019-02-14T02:02:45.895Z,96.50
2019-02-14T02:05:12.285Z,96.60
2019-02-14T02:07:38.670Z,96.60
2019-02-14T02:10:10.115Z,96.60
2019-02-14T02:12:36.613Z,96.60
2019-02-14T02:15:05.809Z,96.70
2019-02-14T02:17:32.220Z,96.80
2019-02-14T02:19:58.548Z,96.80
2019-02-14T02:22:25.026Z,96.80
2019-02-14T02:24:51.314Z,96.80
2019-02-14T02:27:17.810Z,96.80
2019-02-14T02:29:44.240Z,96.70
2019-02-14T02:32:10.558Z,96.80
2019-02-14T02:34:36.922Z,96.80
2019-02-14T02:37:03.412Z,96.80
2019-02-14T02:39:29.898Z,96.70
2019-02-14T02:41:56.224Z,96.70
2019-02-14T02:44:22.513Z,96.60
2019-02-14T02:46:48.925Z,96.60
2019-02-14T02:49:15.345Z,96.60
2019-02-14T02:51:41.729Z,96.50
2019-02-14T02:54:08.144Z,96.50
2019-02-14T02:56:34.589Z,96.50
2019-02-14T02:59:01.114Z,96.50
2019-02-14T03:01:27.485Z,96.50
2019-02-14T03:03:53.865Z,96.50
2019-02-14T03:06:20.231Z,96.50
2019-02-14T03:08:46.502Z,96.50
2019-02-14T03:11:13.041Z,96.60
2019-02-14T03:13:39.321Z,96.50
2019-02-14T03:16:05.604Z,96.50
2019-02-14T03:18:32.002Z,96.40
2019-02-14T03:20:58.284Z,96.40
2019-02-14T03:23:24.672Z,96.40
2019-02-14T03:25:51.110Z,96.30
2019-02-14T03:28:17.591Z,96.30
2019-02-14T03:30:44.103Z,96.30
2019-02-14T03:33:10.563Z,96.30
2019-02-14T03:35:37.083Z,96.40
2019-02-14T03:38:03.362Z,96.40
2019-02-14T03:40:29.769Z,96.80
2019-02-14T03:42:56.405Z,96.60
2019-02-14T03:45:22.930Z,96.60
2019-02-14T03:47:49.438Z,96.60
2019-02-14T03:50:15.893Z,96.50
2019-02-14T03:52:42.418Z,96.60
2019-02-14T03:55:09.504Z,96.50
2019-02-14T03:57:37.101Z,96.70
2019-02-14T04:00:10.593Z,96.70
2019-02-14T04:02:36.870Z,96.70
2019-02-14T04:05:04.652Z,96.70
2019-02-14T04:07:31.081Z,96.60
2019-02-14T04:09:57.364Z,96.60
2019-02-14T04:12:23.727Z,96.50
2019-02-14T04:14:50.138Z,96.60
2019-02-14T04:17:16.635Z,96.60
2019-02-14T04:19:43.076Z,96.60
2019-02-14T04:22:09.366Z,96.60
2019-02-14T04:24:35.673Z,96.60
2019-02-14T04:27:02.072Z,96.70
2019-02-14T04:29:28.356Z,96.70
2019-02-14T04:31:54.759Z,97.00
2019-02-14T04:34:21.200Z,96.60
2019-02-14T04:36:47.529Z,96.60
2019-02-14T04:39:13.896Z,96.60
2019-02-14T04:41:40.199Z,96.60
2019-02-14T04:44:06.569Z,96.60
2019-02-14T04:46:32.993Z,96.60
2019-02-14T04:48:59.395Z,96.50
2019-02-14T04:51:25.917Z,96.50
2019-02-14T04:53:52.344Z,96.50
2019-02-14T04:56:18.759Z,96.50
2019-02-14T04:58:45.121Z,96.60
2019-02-14T05:01:11.392Z,96.50
2019-02-14T05:03:37.850Z,96.50
2019-02-14T05:06:04.091Z,96.40
2019-02-14T05:08:30.353Z,96.40
2019-02-14T05:10:56.641Z,96.30
2019-02-14T05:13:22.944Z,96.30
2019-02-14T05:15:49.416Z,96.20
2019-02-14T05:18:15.685Z,96.30
2019-02-14T05:20:42.076Z,96.40
2019-02-14T05:23:08.487Z,96.40
2019-02-14T05:25:34.792Z,96.40
2019-02-14T05:28:01.108Z,96.40
2019-02-14T05:30:27.391Z,96.50
2019-02-14T05:32:53.797Z,96.50
2019-02-14T05:35:20.209Z,96.50
2019-02-14T05:37:46.482Z,96.60
2019-02-14T05:40:12.748Z,96.50
2019-02-14T05:42:39.176Z,96.40
2019-02-14T05:45:08.659Z,96.40
2019-02-14T05:47:35.024Z,96.50
2019-02-14T05:50:01.435Z,96.50
2019-02-14T05:52:27.909Z,96.60
2019-02-14T05:54:54.296Z,96.60
2019-02-14T05:57:20.575Z,96.60
2019-02-14T05:59:46.950Z,96.60
2019-02-14T06:02:14.254Z,96.60
2019-02-14T06:04:40.513Z,96.60
2019-02-14T06:07:06.820Z,96.50
2019-02-14T06:09:33.085Z,96.50
2019-02-14T06:11:59.445Z,96.50
2019-02-14T06:14:25.843Z,96.50
2019-02-14T06:16:52.237Z,96.40
2019-02-14T06:19:18.620Z,96.50
2019-02-14T06:21:44.914Z,96.40
2019-02-14T06:24:11.191Z,96.50
2019-02-14T06:26:37.608Z,96.50
2019-02-14T06:29:03.997Z,96.50
2019-02-14T06:31:30.270Z,96.40
2019-02-14T06:33:56.548Z,96.40
2019-02-14T06:36:22.974Z,96.40
2019-02-14T06:38:49.238Z,96.40
2019-02-14T06:41:15.536Z,96.40
2019-02-14T06:43:42.060Z,96.30
2019-02-14T06:46:08.478Z,96.40
2019-02-14T06:48:34.747Z,96.30
2019-02-14T06:51:01.134Z,96.50
2019-02-14T06:53:27.424Z,96.50
2019-02-14T06:55:53.801Z,96.60
2019-02-14T06:58:20.052Z,96.60
2019-02-14T07:00:46.387Z,96.60
2019-02-14T07:03:12.642Z,96.60
2019-02-14T07:05:39.039Z,96.70
2019-02-14T07:08:05.303Z,96.70
2019-02-14T07:10:31.807Z,96.70
2019-02-14T07:12:58.114Z,96.70
2019-02-14T07:15:24.515Z,96.80
2019-02-14T07:17:50.772Z,96.80
2019-02-14T07:20:17.320Z,96.80
2019-02-14T07:22:43.697Z,97.00
2019-02-14T07:25:10.852Z,97.00
2019-02-14T07:27:37.542Z,97.00
2019-02-14T07:30:08.589Z,97.00
2019-02-14T07:32:35.072Z,97.10
2019-02-14T07:35:01.471Z,97.20
2019-02-14T07:37:27.741Z,97.30
2019-02-14T07:39:54.124Z,97.30
2019-02-14T07:42:20.768Z,97.30
2019-02-14T07:44:47.055Z,97.40
2019-02-14T07:47:13.315Z,97.40
2019-02-14T07:49:39.642Z,97.40
2019-02-14T07:52:07.342Z,97.50
2019-02-14T07:54:33.591Z,97.60
2019-02-14T07:56:59.836Z,97.60
2019-02-14T07:59:26.118Z,97.60
2019-02-14T08:01:52.526Z,97.60
2019-02-14T08:04:21.758Z,97.50
2019-02-14T08:06:48.170Z,97.60
2019-02-14T08:09:14.482Z,97.60
2019-02-14T08:11:40.774Z,97.70
2019-02-14T08:14:07.139Z,97.70
2019-02-14T08:16:33.547Z,97.80
2019-02-14T08:19:00.153Z,97.80
2019-02-14T08:21:26.513Z,97.80
2019-02-14T08:23:52.862Z,97.80
2019-02-14T08:26:19.300Z,97.70
2019-02-14T08:28:45.566Z,97.70
2019-02-14T08:31:11.832Z,97.70
2019-02-14T08:33:38.128Z,97.70
2019-02-14T08:36:04.503Z,97.60
2019-02-14T08:38:30.781Z,97.50
2019-02-14T08:40:57.071Z,97.40
2019-02-14T08:43:23.337Z,97.30
2019-02-14T08:45:49.622Z,97.40
2019-02-14T08:48:16.006Z,97.40
2019-02-14T08:50:42.288Z,97.30
2019-02-14T08:53:08.830Z,97.30
2019-02-14T08:55:35.199Z,97.30
2019-02-14T08:58:01.460Z,97.30
2019-02-14T09:00:28.110Z,97.20
2019-02-14T09:02:54.603Z,97.30
2019-02-14T09:05:20.989Z,97.10
2019-02-14T09:07:54.198Z,97.00
2019-02-14T09:10:15.962Z,97.00
2019-02-14T09:12:42.353Z,96.90
2019-02-14T09:15:10.820Z,96.80
2019-02-14T09:17:37.276Z,96.90
2019-02-14T09:20:07.133Z,96.80
2019-02-14T09:22:33.523Z,96.80
2019-02-14T09:24:59.930Z,96.80
2019-02-14T09:27:26.351Z,96.90
2019-02-14T09:29:52.732Z,96.90
2019-02-14T09:32:20.942Z,96.90
2019-02-14T09:34:47.420Z,96.80
2019-02-14T09:37:13.739Z,96.80
2019-02-14T09:39:41.038Z,96.80
2019-02-14T09:42:07.760Z,96.80
2019-02-14T09:44:34.043Z,96.70
2019-02-14T09:47:00.430Z,96.80
2019-02-14T09:49:26.715Z,96.60
2019-02-14T09:51:53.033Z,96.60
2019-02-14T09:54:19.350Z,96.60
2019-02-14T09:56:45.628Z,96.50
2019-02-14T09:59:11.919Z,96.40
2019-02-14T10:01:38.561Z,96.40
2019-02-14T10:04:04.890Z,96.50
2019-02-14T10:06:36.717Z,96.40
2019-02-14T10:09:00.756Z,96.40
2019-02-14T10:11:28.312Z,96.40
2019-02-14T10:13:55.550Z,96.40
2019-02-14T10:16:21.922Z,96.40
2019-02-14T10:18:48.236Z,96.40
2019-02-14T10:21:14.487Z,96.50
2019-02-14T10:23:40.902Z,96.20
2019-02-14T10:26:07.253Z,96.30
2019-02-14T10:28:33.671Z,96.40
2019-02-14T10:30:59.956Z,96.50
2019-02-14T10:33:26.283Z,96.60
2019-02-14T10:35:52.704Z,96.50
2019-02-14T10:38:22.318Z,96.50
2019-02-14T10:40:47.146Z,96.50
2019-02-14T10:43:13.543Z,96.50
2019-02-14T10:45:39.901Z,96.50
2019-02-14T10:48:06.201Z,96.40
2019-02-14T10:50:32.485Z,96.40
2019-02-14T10:52:58.878Z,96.60
2019-02-14T10:55:25.219Z,96.00
2019-02-14T10:57:51.550Z,95.80
2019-02-14T11:00:24.441Z,96.10
2019-02-14T11:02:51.261Z,95.70
2019-02-14T11:05:18.023Z,95.30
2019-02-14T11:07:44.429Z,95.40
2019-02-14T11:10:12.523Z,95.50
2019-02-14T11:12:38.977Z,95.10
2019-02-14T11:15:11.530Z,95.40
2019-02-14T11:17:37.889Z,95.60
2019-02-14T11:20:06.963Z,95.00
2019-02-14T11:22:33.283Z,95.30
2019-02-14T11:24:59.582Z,95.50
2019-02-14T11:27:26.003Z,95.10
2019-02-14T11:29:52.385Z,95.20
2019-02-14T11:32:18.671Z,95.40
2019-02-14T11:34:44.952Z,95.30
2019-02-14T11:37:11.233Z,95.50
2019-02-14T11:39:37.476Z,95.10
2019-02-14T11:42:03.894Z,94.80
2019-02-14T11:44:39.312Z,93.60
2019-02-14T11:46:58.225Z,93.40
2019-02-14T11:49:24.605Z,91.90
2019-02-14T11:51:50.971Z,92.00
2019-02-14T11:54:17.252Z,91.00
2019-02-14T11:56:43.667Z,91.00
2019-02-14T11:59:09.945Z,91.20
2019-02-14T12:01:36.197Z,92.90
2019-02-14T12:04:02.703Z,92.00
2019-02-14T12:06:29.007Z,92.80
2019-02-14T12:09:00.083Z,92.10
2019-02-14T12:11:23.472Z,92.70
2019-02-14T12:13:49.868Z,93.00
2019-02-14T12:16:16.252Z,93.30
2019-02-14T12:18:42.513Z,93.30
2019-02-14T12:21:08.817Z,93.60
2019-02-14T12:23:35.203Z,93.00
2019-02-14T12:26:01.616Z,92.90
2019-02-14T12:28:27.894Z,93.30
2019-02-14T12:30:54.209Z,93.50
2019-02-14T12:33:20.700Z,93.00
2019-02-14T12:35:47.077Z,92.90
2019-02-14T12:38:13.468Z,92.70
2019-02-14T12:40:39.850Z,92.80
2019-02-14T12:43:06.092Z,93.10
2019-02-14T12:45:32.503Z,92.20
2019-02-14T12:47:58.876Z,92.20
2019-02-14T12:50:25.256Z,92.70
2019-02-14T12:52:51.627Z,92.30
2019-02-14T12:55:17.980Z,91.70
2019-02-14T12:57:44.390Z,92.40
2019-02-14T13:00:19.798Z,92.90
2019-02-14T13:02:46.118Z,92.80
2019-02-14T13:05:12.375Z,92.90
2019-02-14T13:07:38.670Z,92.90
2019-02-14T13:10:08.583Z,92.80
2019-02-14T13:12:34.860Z,92.90
2019-02-14T13:15:01.367Z,92.90
2019-02-14T13:17:27.745Z,92.80
2019-02-14T13:19:54.037Z,92.50
2019-02-14T13:22:20.389Z,92.30
2019-02-14T13:24:46.707Z,92.60
2019-02-14T13:27:12.981Z,92.50
2019-02-14T13:29:39.284Z,92.40
2019-02-14T13:32:05.581Z,92.30
2019-02-14T13:34:31.948Z,92.00
2019-02-14T13:37:01.529Z,92.00
2019-02-14T13:39:29.665Z,91.90
2019-02-14T13:41:54.524Z,91.30
2019-02-14T13:44:20.810Z,91.80
2019-02-14T13:46:47.193Z,91.80
2019-02-14T13:49:13.477Z,91.20
2019-02-14T13:51:39.860Z,91.80
2019-02-14T13:54:06.169Z,92.20
2019-02-14T13:56:32.431Z,92.30
2019-02-14T13:58:58.708Z,92.00
2019-02-14T14:01:25.128Z,90.50
2019-02-14T14:03:51.524Z,90.20
2019-02-14T14:06:17.781Z,91.50
2019-02-14T14:08:44.088Z,91.00
2019-02-14T14:11:10.452Z,90.70
2019-02-14T14:13:36.733Z,88.90
2019-02-14T14:16:03.029Z,90.00
2019-02-14T14:18:29.307Z,90.90
2019-02-14T14:20:55.617Z,90.50
2019-02-14T14:23:21.881Z,89.70
2019-02-14T14:25:48.162Z,87.70
2019-02-14T14:28:14.492Z,85.80
2019-02-14T14:30:40.834Z,85.60
2019-02-14T14:33:07.209Z,83.00
2019-02-14T14:35:33.516Z,83.90
2019-02-14T14:37:59.901Z,83.20
2019-02-14T14:40:26.363Z,80.90
2019-02-14T14:42:54.630Z,80.40
2019-02-14T14:45:39.724Z,77.70
2019-02-14T14:48:18.968Z,77.70
2019-02-14T14:50:38.456Z,74.90
2019-02-14T14:53:07.517Z,74.10
2019-02-14T14:55:34.045Z,73.00
2019-02-14T14:58:00.366Z,72.00
2019-02-14T15:00:26.865Z,72.30
2019-02-14T15:02:53.145Z,71.10
2019-02-14T15:05:19.558Z,68.00
2019-02-14T15:07:45.962Z,68.70
2019-02-14T15:10:12.284Z,69.00
2019-02-14T15:12:38.616Z,67.30
2019-02-14T15:15:06.311Z,62.00
2019-02-14T15:17:33.265Z,64.60
2019-02-14T15:19:59.623Z,62.90
2019-02-14T15:22:25.969Z,55.70
2019-02-14T15:24:52.382Z,59.30
2019-02-14T15:27:18.712Z,60.00
2019-02-14T15:29:45.031Z,59.90
2019-02-14T15:32:11.379Z,61.20
2019-02-14T15:34:37.780Z,60.90
2019-02-14T15:37:04.268Z,60.60
2019-02-14T15:39:30.764Z,60.60
2019-02-14T15:41:57.050Z,60.80
2019-02-14T15:44:23.375Z,60.20
2019-02-14T15:46:49.858Z,60.40
2019-02-14T15:49:16.243Z,60.00
2019-02-14T15:51:43.793Z,60.00
2019-02-14T15:54:11.882Z,58.70
2019-02-14T15:56:38.220Z,59.30
2019-02-14T15:59:04.705Z,55.00
2019-02-14T16:01:30.969Z,53.90
2019-02-14T16:03:57.267Z,55.50
2019-02-14T16:06:23.585Z,56.60
2019-02-14T16:08:49.981Z,58.80
2019-02-14T16:11:16.312Z,59.30
2019-02-14T16:13:42.685Z,59.90
2019-02-14T16:16:09.030Z,59.60
2019-02-14T16:18:35.503Z,60.80
2019-02-14T16:21:03.547Z,61.70
2019-02-14T16:23:31.767Z,62.10
2019-02-14T16:25:58.953Z,63.20
2019-02-14T16:28:25.387Z,63.20
2019-02-14T16:30:52.824Z,64.50
2019-02-14T16:33:19.755Z,64.30
2019-02-14T16:35:46.039Z,65.70
2019-02-14T16:38:13.933Z,65.00
2019-02-14T16:40:40.365Z,65.90
2019-02-14T16:43:06.785Z,67.60
2019-02-14T16:45:33.192Z,67.00
2019-02-14T16:47:59.495Z,67.50
2019-02-14T16:50:25.793Z,69.80
2019-02-14T16:52:52.065Z,69.90
2019-02-14T16:55:18.461Z,69.90
2019-02-14T16:57:44.940Z,70.70
2019-02-14T17:00:11.458Z,71.70
2019-02-14T17:02:37.871Z,71.70
2019-02-14T17:05:04.371Z,71.60
2019-02-14T17:07:30.664Z,72.50
2019-02-14T17:09:57.220Z,71.70
2019-02-14T17:12:23.521Z,70.40
2019-02-14T17:14:49.779Z,72.30
2019-02-14T17:17:16.189Z,73.10
2019-02-14T17:19:42.564Z,72.40
2019-02-14T17:22:08.871Z,73.00
2019-02-14T17:24:35.152Z,74.70
2019-02-14T17:27:01.530Z,75.10
2019-02-14T17:29:27.948Z,75.50
2019-02-14T17:31:54.315Z,76.70
2019-02-14T17:34:20.704Z,77.60
2019-02-14T17:36:46.993Z,78.00
2019-02-14T17:39:13.293Z,78.40
2019-02-14T17:41:39.590Z,78.80
2019-02-14T17:44:05.950Z,79.50
2019-02-14T17:46:32.238Z,80.10
2019-02-14T17:48:58.560Z,80.60
2019-02-14T17:51:24.926Z,81.00
2019-02-14T17:53:51.375Z,81.90
2019-02-14T17:56:17.612Z,81.80
2019-02-14T17:58:43.928Z,82.30
2019-02-14T18:01:10.244Z,82.80
2019-02-14T18:03:36.525Z,83.10
2019-02-14T18:06:02.953Z,83.20
2019-02-14T18:08:29.320Z,83.60
2019-02-14T18:10:55.689Z,84.00
2019-02-14T18:13:21.985Z,84.40
2019-02-14T18:15:48.247Z,84.60
2019-02-14T18:18:14.562Z,85.10
2019-02-14T18:20:43.015Z,85.20
2019-02-14T18:23:08.997Z,85.40
2019-02-14T18:25:35.382Z,85.60
2019-02-14T18:28:01.675Z,85.60
2019-02-14T18:30:28.085Z,85.80
2019-02-14T18:32:54.365Z,86.30
2019-02-14T18:35:20.781Z,86.40
2019-02-14T18:37:47.125Z,86.60
2019-02-14T18:40:13.596Z,86.90
2019-02-14T18:42:45.146Z,87.10
2019-02-14T18:45:12.474Z,87.40
2019-02-14T18:47:39.966Z,87.70
2019-02-14T18:50:09.653Z,88.00
2019-02-14T18:52:36.009Z,88.20
2019-02-14T18:55:02.495Z,88.40
2019-02-14T18:57:28.773Z,88.20
2019-02-14T18:59:55.075Z,88.50
2019-02-14T19:02:22.773Z,88.70
2019-02-14T19:04:49.110Z,88.80
2019-02-14T19:07:15.375Z,89.10
2019-02-14T19:09:41.676Z,89.30
2019-02-14T19:12:08.355Z,89.50
2019-02-14T19:14:34.750Z,89.50
2019-02-14T19:17:01.013Z,89.70
2019-02-14T19:19:27.275Z,89.70
2019-02-14T19:21:53.672Z,89.80
2019-02-14T19:24:20.027Z,89.90
2019-02-14T19:26:46.347Z,90.00
2019-02-14T19:29:12.628Z,90.00
2019-02-14T19:31:39.062Z,90.20
2019-02-14T19:34:05.534Z,90.20
2019-02-14T19:36:31.825Z,90.20
2019-02-14T19:38:58.707Z,90.20
2019-02-14T19:41:25.535Z,90.40
2019-02-14T19:43:52.054Z,90.50
2019-02-14T19:46:18.443Z,90.60
2019-02-14T19:48:44.720Z,90.60
2019-02-14T19:51:11.006Z,90.60
2019-02-14T19:53:37.306Z,90.70
2019-02-14T19:56:03.568Z,90.80
2019-02-14T19:58:29.868Z,90.90
2019-02-14T20:00:56.224Z,91.00
2019-02-14T20:03:22.552Z,91.10
2019-02-14T20:05:48.827Z,91.10
2019-02-14T20:08:15.078Z,91.10
2019-02-14T20:10:41.370Z,91.20
2019-02-14T20:13:07.728Z,91.20
2019-02-14T20:15:37.267Z,91.30
2019-02-14T20:18:02.263Z,91.30
2019-02-14T20:20:28.456Z,91.40
2019-02-14T20:22:54.840Z,91.30
2019-02-14T20:25:26.833Z,91.40
2019-02-14T20:27:53.195Z,91.40
2019-02-14T20:30:19.503Z,91.50
2019-02-14T20:32:45.832Z,91.50
2019-02-14T20:35:12.182Z,91.80
2019-02-14T20:37:38.617Z,91.60
2019-02-14T20:40:08.092Z,91.80
2019-02-14T20:42:34.454Z,91.90
2019-02-14T20:45:00.979Z,91.80
2019-02-14T20:47:27.345Z,91.90
2019-02-14T20:49:53.648Z,92.00
2019-02-14T20:52:20.109Z,92.00
2019-02-14T20:54:46.523Z,92.00
2019-02-14T20:57:12.888Z,92.10
2019-02-14T20:59:39.173Z,92.10
2019-02-14T21:02:05.940Z,92.20
2019-02-14T21:04:32.290Z,92.20
2019-02-14T21:06:58.559Z,92.20
2019-02-14T21:09:24.828Z,92.30
2019-02-14T21:11:54.729Z,92.30
2019-02-14T21:14:19.366Z,92.30
2019-02-14T21:16:45.633Z,92.40
2019-02-14T21:19:12.025Z,92.50
2019-02-14T21:21:38.445Z,92.60
2019-02-14T21:24:04.869Z,92.60
2019-02-14T21:26:31.185Z,92.60
2019-02-14T21:28:57.654Z,92.70
2019-02-14T21:31:24.102Z,92.70
2019-02-14T21:33:52.347Z,92.60
2019-02-14T21:36:18.698Z,93.10
2019-02-14T21:38:44.987Z,92.70
2019-02-14T21:41:11.510Z,92.80
2019-02-14T21:43:37.838Z,92.90
2019-02-14T21:46:04.196Z,92.90
2019-02-14T21:48:30.486Z,93.00
2019-02-14T21:50:56.802Z,93.00
2019-02-14T21:53:23.187Z,93.10
2019-02-14T21:55:49.525Z,93.20
2019-02-14T21:58:15.850Z,93.30
2019-02-14T22:00:42.213Z,93.30
2019-02-14T22:03:08.615Z,93.40
2019-02-14T22:05:35.142Z,93.40
2019-02-14T22:08:01.561Z,93.50
2019-02-14T22:10:27.982Z,93.60
2019-02-14T22:12:54.438Z,93.60
2019-02-14T22:15:26.312Z,93.60
2019-02-14T22:17:52.645Z,93.70
2019-02-14T22:20:19.015Z,93.70
2019-02-14T22:22:45.454Z,93.70
2019-02-14T22:25:11.936Z,93.70
2019-02-14T22:27:38.408Z,93.80
2019-02-14T22:30:09.328Z,93.80
2019-02-14T22:32:35.802Z,93.80
2019-02-14T22:35:02.380Z,93.80
2019-02-14T22:37:28.839Z,93.90
2019-02-14T22:39:55.163Z,93.90
2019-02-14T22:42:21.505Z,94.40
2019-02-14T22:44:47.829Z,94.10
2019-02-14T22:47:14.132Z,94.10
2019-02-14T22:49:40.525Z,94.10
2019-02-14T22:52:06.842Z,94.00
2019-02-14T22:54:33.226Z,94.00
2019-02-14T22:56:59.605Z,93.90
2019-02-14T22:59:25.952Z,94.00
2019-02-14T23:01:52.444Z,94.00
2019-02-14T23:04:18.762Z,93.90
2019-02-14T23:06:45.028Z,94.00
2019-02-14T23:09:11.504Z,94.00
2019-02-14T23:11:37.800Z,94.00
2019-02-14T23:14:04.158Z,93.90
2019-02-14T23:16:30.571Z,93.90
2019-02-14T23:18:57.047Z,93.90
2019-02-14T23:21:23.377Z,93.90
2019-02-14T23:23:49.683Z,94.00
2019-02-14T23:26:15.997Z,94.00
2019-02-14T23:28:42.395Z,93.90
2019-02-14T23:31:08.648Z,93.90
2019-02-14T23:33:34.943Z,94.00
2019-02-14T23:36:01.209Z,94.00
2019-02-14T23:38:27.476Z,94.00
2019-02-14T23:40:53.762Z,94.00
2019-02-14T23:43:20.032Z,94.00
2019-02-14T23:45:46.312Z,94.00
2019-02-14T23:48:12.694Z,94.00
2019-02-14T23:50:39.062Z,94.00
2019-02-14T23:53:05.453Z,94.10
2019-02-14T23:55:31.730Z,94.10
2019-02-14T23:57:58.096Z,94.10
